createdAt,value
2017-05-12T00:00:37.788Z,79.10
2017-05-12T00:03:05.130Z,79.30
2017-05-12T00:05:32.481Z,79.30
2017-05-12T00:07:59.763Z,79.10
2017-05-12T00:10:27.043Z,79.30
2017-05-12T00:12:54.738Z,79.30
2017-05-12T00:15:22.106Z,79.40
2017-05-12T00:17:49.470Z,79.40
2017-05-12T00:20:16.790Z,79.60
2017-05-12T00:22:43.669Z,79.60
2017-05-12T00:25:10.963Z,79.50
2017-05-12T00:27:38.282Z,79.10
2017-05-12T00:30:05.560Z,78.40
2017-05-12T00:32:32.882Z,78.50
2017-05-12T00:35:00.233Z,78.90
2017-05-12T00:37:27.527Z,79.30
2017-05-12T00:39:54.806Z,79.10
2017-05-12T00:42:22.514Z,78.80
2017-05-12T00:44:49.793Z,78.90
2017-05-12T00:47:17.070Z,78.50
2017-05-12T00:49:44.762Z,78.60
2017-05-12T00:52:12.042Z,78.60
2017-05-12T00:54:38.925Z,78.60
2017-05-12T00:57:06.260Z,78.40
2017-05-12T00:59:33.190Z,78.40
2017-05-12T01:02:00.475Z,78.20
2017-05-12T01:04:27.858Z,78.10
2017-05-12T01:06:54.743Z,78.10
2017-05-12T01:09:22.104Z,77.70
2017-05-12T01:11:49.458Z,78.60
2017-05-12T01:14:16.747Z,78.70
2017-05-12T01:16:43.634Z,78.70
2017-05-12T01:19:10.612Z,78.90
2017-05-12T01:21:37.495Z,78.90
2017-05-12T01:24:05.158Z,78.80
2017-05-12T01:26:32.078Z,78.80
2017-05-12T01:28:58.967Z,79.20
2017-05-12T01:31:25.858Z,79.30
2017-05-12T01:33:53.191Z,78.70
2017-05-12T01:36:20.465Z,78.50
2017-05-12T01:38:47.757Z,78.80
2017-05-12T01:41:15.441Z,78.40
2017-05-12T01:43:42.722Z,78.50
2017-05-12T01:46:09.997Z,78.30
2017-05-12T01:48:37.323Z,78.40
2017-05-12T01:51:04.598Z,79.00
2017-05-12T01:53:31.869Z,78.70
2017-05-12T01:55:59.181Z,78.50
2017-05-12T01:58:26.475Z,78.80
2017-05-12T02:00:53.365Z,78.80
2017-05-12T02:03:20.697Z,79.70
2017-05-12T02:05:48.350Z,80.40
2017-05-12T02:08:15.631Z,80.60
2017-05-12T02:10:43.362Z,80.80
2017-05-12T02:13:10.643Z,80.60
2017-05-12T02:15:38.289Z,80.20
2017-05-12T02:18:05.626Z,80.10
2017-05-12T02:20:32.909Z,80.10
2017-05-12T02:23:00.205Z,79.90
2017-05-12T02:25:27.125Z,79.90
2017-05-12T02:27:54.426Z,79.40
2017-05-12T02:30:21.773Z,79.90
2017-05-12T02:32:49.127Z,80.00
2017-05-12T02:35:16.413Z,80.70
2017-05-12T02:37:43.741Z,80.00
2017-05-12T02:40:11.066Z,79.80
2017-05-12T02:42:38.351Z,79.60
2017-05-12T02:45:05.699Z,80.30
2017-05-12T02:47:32.627Z,80.30
2017-05-12T02:49:59.907Z,79.90
2017-05-12T02:52:27.194Z,79.70
2017-05-12T02:54:54.522Z,79.80
2017-05-12T02:57:21.909Z,79.70
2017-05-12T02:59:49.271Z,80.00
2017-05-12T03:02:16.595Z,80.00
2017-05-12T03:04:43.899Z,80.10
2017-05-12T03:07:11.187Z,80.40
2017-05-12T03:09:38.874Z,80.70
2017-05-12T03:12:06.249Z,80.60
2017-05-12T03:14:33.648Z,80.50
2017-05-12T03:17:00.970Z,80.10
2017-05-12T03:19:28.248Z,80.10
2017-05-12T03:21:55.178Z,80.10
2017-05-12T03:24:22.454Z,80.10
2017-05-12T03:26:49.365Z,80.10
2017-05-12T03:29:17.026Z,80.20
2017-05-12T03:31:44.314Z,80.30
2017-05-12T03:34:11.598Z,80.60
2017-05-12T03:36:38.591Z,80.60
2017-05-12T03:39:05.877Z,80.80
2017-05-12T03:41:33.523Z,80.80
2017-05-12T03:44:00.856Z,80.30
2017-05-12T03:46:28.138Z,80.60
2017-05-12T03:48:55.030Z,80.60
2017-05-12T03:51:22.410Z,80.50
2017-05-12T03:53:49.750Z,80.20
2017-05-12T03:56:16.709Z,80.20
2017-05-12T03:58:44.036Z,80.00
2017-05-12T04:01:11.322Z,79.80
2017-05-12T04:03:38.671Z,80.00
2017-05-12T04:06:05.998Z,79.60
2017-05-12T04:08:33.289Z,79.90
2017-05-12T04:11:00.574Z,80.00
2017-05-12T04:13:28.275Z,80.00
2017-05-12T04:15:55.166Z,80.00
2017-05-12T04:18:22.454Z,80.00
2017-05-12T04:20:50.166Z,79.80
2017-05-12T04:23:17.522Z,80.30
2017-05-12T04:25:44.809Z,80.90
2017-05-12T04:28:12.538Z,81.00
2017-05-12T04:30:39.819Z,80.60
2017-05-12T04:33:06.716Z,80.60
2017-05-12T04:35:34.042Z,80.80
2017-05-12T04:38:01.749Z,81.20
2017-05-12T04:40:29.037Z,81.50
2017-05-12T04:42:56.400Z,81.00
2017-05-12T04:45:23.757Z,81.40
2017-05-12T04:47:51.036Z,81.70
2017-05-12T04:50:17.957Z,81.70
2017-05-12T04:52:45.254Z,81.00
2017-05-12T04:55:12.585Z,80.80
2017-05-12T04:57:40.302Z,81.10
2017-05-12T05:00:07.585Z,81.00
2017-05-12T05:02:34.869Z,80.50
2017-05-12T05:05:02.182Z,80.60
2017-05-12T05:07:29.076Z,80.60
2017-05-12T05:09:56.676Z,80.40
2017-05-12T05:12:24.011Z,80.60
2017-05-12T05:14:51.315Z,80.50
2017-05-12T05:17:18.973Z,80.50
2017-05-12T05:19:45.928Z,80.50
2017-05-12T05:22:13.585Z,80.60
2017-05-12T05:24:40.904Z,80.90
2017-05-12T05:27:08.234Z,80.90
2017-05-12T05:29:35.526Z,80.90
2017-05-12T05:32:02.806Z,81.00
2017-05-12T05:34:30.516Z,80.90
2017-05-12T05:36:57.801Z,81.10
2017-05-12T05:39:25.087Z,81.50
2017-05-12T05:41:52.907Z,81.40
2017-05-12T05:44:20.185Z,81.30
2017-05-12T05:46:47.522Z,81.30
2017-05-12T05:49:14.795Z,81.30
2017-05-12T05:51:42.107Z,81.50
2017-05-12T05:54:09.044Z,81.50
2017-05-12T05:56:36.330Z,81.40
2017-05-12T05:59:03.619Z,81.50
2017-05-12T06:01:30.952Z,81.70
2017-05-12T06:03:58.233Z,81.60
2017-05-12T06:06:25.901Z,81.90
2017-05-12T06:08:53.234Z,81.80
2017-05-12T06:11:20.525Z,81.80
2017-05-12T06:13:47.829Z,82.20
2017-05-12T06:16:15.162Z,82.40
2017-05-12T06:18:42.538Z,82.20
2017-05-12T06:21:09.849Z,82.50
2017-05-12T06:23:37.250Z,82.30
2017-05-12T06:26:04.569Z,82.20
2017-05-12T06:28:31.852Z,82.90
2017-05-12T06:30:59.190Z,82.50
2017-05-12T06:33:26.488Z,82.40
2017-05-12T06:35:53.852Z,81.60
2017-05-12T06:38:21.574Z,81.10
2017-05-12T06:40:48.875Z,80.80
2017-05-12T06:43:16.165Z,81.00
2017-05-12T06:45:43.499Z,81.30
2017-05-12T06:48:10.389Z,81.30
2017-05-12T06:50:37.673Z,81.00
2017-05-12T06:53:05.015Z,80.90
2017-05-12T06:55:32.298Z,80.50
2017-05-12T06:57:59.960Z,79.80
2017-05-12T07:00:27.649Z,79.40
2017-05-12T07:02:54.936Z,79.30
2017-05-12T07:05:22.218Z,79.20
2017-05-12T07:07:49.553Z,78.70
2017-05-12T07:10:16.847Z,78.80
2017-05-12T07:12:44.518Z,78.80
2017-05-12T07:15:12.226Z,78.40
2017-05-12T07:17:39.505Z,78.40
2017-05-12T07:20:06.785Z,78.40
2017-05-12T07:22:34.499Z,78.90
2017-05-12T07:25:01.796Z,78.90
2017-05-12T07:27:29.473Z,79.20
2017-05-12T07:29:57.990Z,79.80
2017-05-12T07:32:25.271Z,79.80
2017-05-12T07:34:52.561Z,80.00
2017-05-12T07:37:20.545Z,79.90
2017-05-12T07:39:47.817Z,79.40
2017-05-12T07:42:15.101Z,79.70
2017-05-12T07:44:42.446Z,80.00
2017-05-12T07:47:09.734Z,78.80
2017-05-12T07:49:37.089Z,78.10
2017-05-12T07:52:04.409Z,78.20
2017-05-12T07:54:31.801Z,77.30
2017-05-12T07:56:59.090Z,76.70
2017-05-12T07:59:26.445Z,75.70
2017-05-12T08:01:53.830Z,76.10
2017-05-12T08:04:21.191Z,75.70
2017-05-12T08:06:48.529Z,75.80
2017-05-12T08:09:15.822Z,74.60
2017-05-12T08:11:43.148Z,74.30
2017-05-12T08:14:10.589Z,73.30
2017-05-12T08:16:37.874Z,73.60
2017-05-12T08:19:05.166Z,73.40
2017-05-12T08:21:32.890Z,73.80
2017-05-12T08:24:00.275Z,73.50
2017-05-12T08:26:27.161Z,73.50
2017-05-12T08:28:54.580Z,72.10
2017-05-12T08:31:21.471Z,72.10
2017-05-12T08:33:48.751Z,72.10
2017-05-12T08:36:16.086Z,71.80
2017-05-12T08:38:42.975Z,71.80
2017-05-12T08:41:10.266Z,70.80
2017-05-12T08:43:37.590Z,71.30
2017-05-12T08:46:04.511Z,71.40
2017-05-12T08:48:31.782Z,71.50
2017-05-12T08:50:59.093Z,71.00
2017-05-12T08:53:26.378Z,71.30
2017-05-12T08:55:53.818Z,71.50
2017-05-12T08:58:21.174Z,70.80
2017-05-12T09:00:48.529Z,71.30
2017-05-12T09:03:15.478Z,71.30
2017-05-12T09:05:42.846Z,71.20
2017-05-12T09:08:10.182Z,71.60
2017-05-12T09:10:37.619Z,71.70
2017-05-12T09:13:04.891Z,71.60
2017-05-12T09:15:31.823Z,71.60
2017-05-12T09:17:59.205Z,71.60
2017-05-12T09:20:26.570Z,70.90
2017-05-12T09:22:53.846Z,71.40
2017-05-12T09:25:21.278Z,71.70
2017-05-12T09:27:48.582Z,72.90
2017-05-12T09:30:16.235Z,72.20
2017-05-12T09:32:43.959Z,72.00
2017-05-12T09:35:11.234Z,72.40
2017-05-12T09:37:38.826Z,72.70
2017-05-12T09:40:06.543Z,72.00
2017-05-12T09:42:33.890Z,71.20
2017-05-12T09:45:01.245Z,71.50
2017-05-12T09:47:28.554Z,70.40
2017-05-12T09:49:56.245Z,71.30
2017-05-12T09:52:23.523Z,70.90
2017-05-12T09:54:50.798Z,70.60
2017-05-12T09:57:18.225Z,69.10
2017-05-12T09:59:45.514Z,69.70
2017-05-12T10:02:12.802Z,68.30
2017-05-12T10:04:39.742Z,68.30
2017-05-12T10:07:06.633Z,68.40
2017-05-12T10:09:33.952Z,66.30
2017-05-12T10:12:01.267Z,66.00
2017-05-12T10:14:28.177Z,66.00
2017-05-12T10:16:55.454Z,65.10
2017-05-12T10:19:22.833Z,64.90
2017-05-12T10:21:50.123Z,65.90
2017-05-12T10:24:17.398Z,65.80
2017-05-12T10:26:44.738Z,65.40
2017-05-12T10:29:11.626Z,65.40
2017-05-12T10:31:38.903Z,65.80
2017-05-12T10:34:06.617Z,66.10
2017-05-12T10:36:33.971Z,65.10
2017-05-12T10:39:01.333Z,64.90
2017-05-12T10:41:28.689Z,64.40
2017-05-12T10:43:55.974Z,64.70
2017-05-12T10:46:23.266Z,65.30
2017-05-12T10:48:50.655Z,67.00
2017-05-12T10:51:18.048Z,67.20
2017-05-12T10:53:45.351Z,65.60
2017-05-12T10:56:12.277Z,65.70
2017-05-12T10:58:39.565Z,65.40
2017-05-12T11:01:06.850Z,65.10
2017-05-12T11:03:34.213Z,64.10
2017-05-12T11:06:01.499Z,64.60
2017-05-12T11:08:28.795Z,64.30
2017-05-12T11:10:56.146Z,65.80
2017-05-12T11:13:23.442Z,65.60
2017-05-12T11:15:50.754Z,64.70
2017-05-12T11:18:18.120Z,64.60
2017-05-12T11:20:45.422Z,64.90
2017-05-12T11:23:12.718Z,64.60
2017-05-12T11:25:40.046Z,65.00
2017-05-12T11:28:07.334Z,64.50
2017-05-12T11:30:34.653Z,63.60
2017-05-12T11:33:01.611Z,63.60
2017-05-12T11:35:28.893Z,63.50
2017-05-12T11:37:56.174Z,62.50
2017-05-12T11:40:23.866Z,62.00
2017-05-12T11:42:51.142Z,61.80
2017-05-12T11:45:18.093Z,61.80
2017-05-12T11:47:45.422Z,60.60
2017-05-12T11:50:12.702Z,60.30
2017-05-12T11:52:39.583Z,60.30
2017-05-12T11:55:06.915Z,61.40
2017-05-12T11:57:34.190Z,61.20
2017-05-12T12:00:01.134Z,61.20
2017-05-12T12:02:28.464Z,60.90
2017-05-12T12:04:55.750Z,60.70
2017-05-12T12:07:22.630Z,60.70
2017-05-12T12:09:49.951Z,60.60
2017-05-12T12:12:17.239Z,61.20
2017-05-12T12:14:44.168Z,61.20
2017-05-12T12:17:11.515Z,60.60
2017-05-12T12:19:38.785Z,59.80
2017-05-12T12:22:05.667Z,59.80
2017-05-12T12:24:33.034Z,61.60
2017-05-12T12:27:00.390Z,61.90
2017-05-12T12:29:27.665Z,64.20
2017-05-12T12:31:55.095Z,65.70
2017-05-12T12:34:22.370Z,65.20
2017-05-12T12:36:49.653Z,65.30
2017-05-12T12:39:17.341Z,65.00
2017-05-12T12:41:44.223Z,65.00
2017-05-12T12:44:11.572Z,66.00
2017-05-12T12:46:38.945Z,66.00
2017-05-12T12:49:06.226Z,65.60
2017-05-12T12:51:33.992Z,65.30
2017-05-12T12:54:01.654Z,64.50
2017-05-12T12:56:28.934Z,65.20
2017-05-12T12:58:56.270Z,65.60
2017-05-12T13:01:23.934Z,65.10
2017-05-12T13:03:50.884Z,65.10
2017-05-12T13:06:17.814Z,64.00
2017-05-12T13:08:45.103Z,63.00
2017-05-12T13:11:11.987Z,63.00
2017-05-12T13:13:39.321Z,62.70
2017-05-12T13:16:06.684Z,61.90
2017-05-12T13:18:33.965Z,61.50
2017-05-12T13:21:01.292Z,61.50
2017-05-12T13:23:28.692Z,59.60
2017-05-12T13:25:55.967Z,60.30
2017-05-12T13:28:23.287Z,60.60
2017-05-12T13:30:50.161Z,60.60
2017-05-12T13:33:17.814Z,61.40
2017-05-12T13:35:45.542Z,61.70
2017-05-12T13:38:12.826Z,61.80
2017-05-12T13:40:40.593Z,61.00
2017-05-12T13:43:07.521Z,61.00
2017-05-12T13:45:34.826Z,61.40
2017-05-12T13:48:01.717Z,61.40
2017-05-12T13:50:29.037Z,62.20
2017-05-12T13:52:55.945Z,62.20
2017-05-12T13:55:23.591Z,62.20
2017-05-12T13:57:50.912Z,61.90
2017-05-12T14:00:18.278Z,61.30
2017-05-12T14:02:45.554Z,60.70
2017-05-12T14:05:12.886Z,60.60
2017-05-12T14:07:40.172Z,59.60
2017-05-12T14:10:07.104Z,59.60
2017-05-12T14:12:34.394Z,60.00
2017-05-12T14:15:01.674Z,60.00
2017-05-12T14:17:28.601Z,60.00
2017-05-12T14:19:55.580Z,59.90
2017-05-12T14:22:22.866Z,58.90
2017-05-12T14:24:50.200Z,59.20
2017-05-12T14:27:17.494Z,59.00
2017-05-12T14:29:45.146Z,59.10
2017-05-12T14:32:12.477Z,59.60
2017-05-12T14:34:39.766Z,58.50
2017-05-12T14:37:07.426Z,58.50
2017-05-12T14:39:34.350Z,58.50
2017-05-12T14:42:01.681Z,56.90
2017-05-12T14:44:39.601Z,56.50
2017-05-12T14:47:06.892Z,56.80
2017-05-12T14:49:34.546Z,57.60
2017-05-12T14:52:01.546Z,57.60
2017-05-12T14:54:28.440Z,56.60
2017-05-12T14:56:55.346Z,56.60
2017-05-12T14:59:22.283Z,57.00
2017-05-12T15:01:49.613Z,55.70
2017-05-12T15:04:16.946Z,54.60
2017-05-12T15:06:44.603Z,55.30
2017-05-12T15:09:12.318Z,55.90
2017-05-12T15:11:39.598Z,55.60
2017-05-12T15:14:06.891Z,56.50
2017-05-12T15:16:33.821Z,56.50
2017-05-12T15:19:01.154Z,57.00
2017-05-12T15:21:28.428Z,56.90
2017-05-12T15:23:55.746Z,56.70
2017-05-12T15:26:23.135Z,56.60
2017-05-12T15:28:50.430Z,56.70
2017-05-12T15:31:17.758Z,56.70
2017-05-12T15:33:45.413Z,56.50
2017-05-12T15:36:12.689Z,56.70
2017-05-12T15:38:40.393Z,56.60
2017-05-12T15:41:07.677Z,56.10
2017-05-12T15:43:34.998Z,56.20
2017-05-12T15:46:02.322Z,56.10
2017-05-12T15:48:29.601Z,56.20
2017-05-12T15:50:56.882Z,56.50
2017-05-12T15:53:24.215Z,56.80
2017-05-12T15:55:51.097Z,56.80
2017-05-12T15:58:18.422Z,56.90
2017-05-12T16:00:45.842Z,56.80
2017-05-12T16:03:13.150Z,57.10
2017-05-12T16:05:40.430Z,57.20
2017-05-12T16:08:08.145Z,57.10
2017-05-12T16:10:35.426Z,56.80
2017-05-12T16:13:02.726Z,57.30
2017-05-12T16:15:29.672Z,57.30
2017-05-12T16:17:56.949Z,58.00
2017-05-12T16:20:24.230Z,58.10
2017-05-12T16:22:51.569Z,58.40
2017-05-12T16:25:18.878Z,58.30
2017-05-12T16:27:46.528Z,58.10
2017-05-12T16:30:13.878Z,58.40
2017-05-12T16:32:41.979Z,58.40
2017-05-12T16:35:10.591Z,58.90
2017-05-12T16:37:37.529Z,58.90
2017-05-12T16:40:04.818Z,58.60
2017-05-12T16:42:32.198Z,58.90
2017-05-12T16:44:59.537Z,58.60
2017-05-12T16:47:26.970Z,57.80
2017-05-12T16:49:54.263Z,57.60
2017-05-12T16:52:21.577Z,59.40
2017-05-12T16:54:48.557Z,59.40
2017-05-12T16:57:15.859Z,59.20
2017-05-12T16:59:43.193Z,59.20
2017-05-12T17:02:10.854Z,59.10
2017-05-12T17:04:38.174Z,58.70
2017-05-12T17:07:05.493Z,58.70
2017-05-12T17:09:32.383Z,58.70
2017-05-12T17:11:59.665Z,57.90
2017-05-12T17:14:26.594Z,57.90
2017-05-12T17:16:53.952Z,58.20
2017-05-12T17:19:21.275Z,58.20
2017-05-12T17:21:48.631Z,58.40
2017-05-12T17:24:15.910Z,58.40
2017-05-12T17:26:43.202Z,59.00
2017-05-12T17:29:10.519Z,58.80
2017-05-12T17:31:37.404Z,58.80
2017-05-12T17:34:04.715Z,60.00
2017-05-12T17:36:32.047Z,60.60
2017-05-12T17:38:59.401Z,60.70
2017-05-12T17:41:26.684Z,61.00
2017-05-12T17:43:54.165Z,61.10
2017-05-12T17:46:21.636Z,60.80
2017-05-12T17:48:49.172Z,61.20
2017-05-12T17:51:16.286Z,61.20
2017-05-12T17:53:43.789Z,61.60
2017-05-12T17:56:11.226Z,61.60
2017-05-12T17:58:38.941Z,60.40
2017-05-12T18:01:06.217Z,60.10
2017-05-12T18:03:33.116Z,60.10
2017-05-12T18:06:00.444Z,61.10
2017-05-12T18:08:27.730Z,61.20
2017-05-12T18:10:54.665Z,61.20
2017-05-12T18:13:22.315Z,61.00
2017-05-12T18:15:49.632Z,61.60
2017-05-12T18:18:16.571Z,61.50
2017-05-12T18:20:43.857Z,61.60
2017-05-12T18:23:11.139Z,61.50
2017-05-12T18:25:38.837Z,62.60
2017-05-12T18:28:06.115Z,62.10
2017-05-12T18:30:33.427Z,62.10
2017-05-12T18:33:01.126Z,62.20
2017-05-12T18:35:28.485Z,63.30
2017-05-12T18:37:55.790Z,63.30
2017-05-12T18:40:22.719Z,63.20
2017-05-12T18:42:50.001Z,62.70
2017-05-12T18:45:17.644Z,63.10
2017-05-12T18:47:45.359Z,61.70
2017-05-12T18:50:12.642Z,61.70
2017-05-12T18:52:39.915Z,62.00
2017-05-12T18:55:07.396Z,62.00
2017-05-12T18:57:34.274Z,63.20
2017-05-12T19:00:01.643Z,64.70
2017-05-12T19:02:28.962Z,64.70
2017-05-12T19:04:55.846Z,64.70
2017-05-12T19:07:23.194Z,65.20
2017-05-12T19:09:50.528Z,65.40
2017-05-12T19:12:17.826Z,65.70
2017-05-12T19:14:45.114Z,66.10
2017-05-12T19:17:12.824Z,66.10
2017-05-12T19:19:40.147Z,66.30
2017-05-12T19:22:07.427Z,67.00
2017-05-12T19:24:34.754Z,67.50
2017-05-12T19:27:02.035Z,67.20
2017-05-12T19:29:29.334Z,67.20
2017-05-12T19:31:56.651Z,67.40
2017-05-12T19:34:23.940Z,68.00
2017-05-12T19:36:50.826Z,68.00
2017-05-12T19:39:18.218Z,68.20
2017-05-12T19:41:45.494Z,68.10
2017-05-12T19:44:12.384Z,68.10
2017-05-12T19:46:39.709Z,67.60
2017-05-12T19:49:06.985Z,68.10
2017-05-12T19:51:34.274Z,68.70
2017-05-12T19:54:01.602Z,68.90
2017-05-12T19:56:28.913Z,69.30
2017-05-12T19:58:56.647Z,69.70
2017-05-12T20:01:23.968Z,69.80
2017-05-12T20:03:51.258Z,69.50
2017-05-12T20:06:18.575Z,69.50
2017-05-12T20:08:45.903Z,69.60
2017-05-12T20:11:13.551Z,69.70
2017-05-12T20:13:40.882Z,70.30
2017-05-12T20:16:08.218Z,70.40
2017-05-12T20:18:35.512Z,70.10
2017-05-12T20:21:02.439Z,70.10
2017-05-12T20:23:29.394Z,70.40
2017-05-12T20:25:56.690Z,69.80
2017-05-12T20:28:24.350Z,70.10
2017-05-12T20:30:52.066Z,70.70
2017-05-12T20:33:19.354Z,70.50
2017-05-12T20:35:46.670Z,70.20
2017-05-12T20:38:14.030Z,70.70
2017-05-12T20:40:41.327Z,70.90
2017-05-12T20:43:08.979Z,71.00
2017-05-12T20:45:36.290Z,71.10
2017-05-12T20:48:03.594Z,71.20
2017-05-12T20:50:30.511Z,71.20
2017-05-12T20:52:57.785Z,72.00
2017-05-12T20:55:25.125Z,72.30
2017-05-12T20:57:52.038Z,72.30
2017-05-12T21:00:19.334Z,72.50
2017-05-12T21:02:46.666Z,72.00
2017-05-12T21:05:13.951Z,72.10
2017-05-12T21:07:41.290Z,72.40
2017-05-12T21:10:08.621Z,72.50
2017-05-12T21:12:35.915Z,72.10
2017-05-12T21:15:03.199Z,72.00
2017-05-12T21:17:30.164Z,72.00
2017-05-12T21:19:57.434Z,73.00
2017-05-12T21:22:24.723Z,72.70
2017-05-12T21:24:52.050Z,72.20
2017-05-12T21:27:18.926Z,72.20
2017-05-12T21:29:45.822Z,72.30
2017-05-12T21:32:13.147Z,72.50
2017-05-12T21:34:40.980Z,72.30
2017-05-12T21:37:07.902Z,72.30
2017-05-12T21:39:35.190Z,72.10
2017-05-12T21:42:02.501Z,71.90
2017-05-12T21:44:29.999Z,71.90
2017-05-12T21:46:57.318Z,71.80
2017-05-12T21:49:24.638Z,72.10
2017-05-12T21:51:52.302Z,72.40
2017-05-12T21:54:19.965Z,72.70
2017-05-12T21:56:47.666Z,72.70
2017-05-12T21:59:14.951Z,72.60
2017-05-12T22:01:42.229Z,72.00
2017-05-12T22:04:09.531Z,72.10
2017-05-12T22:06:36.454Z,72.10
2017-05-12T22:09:03.746Z,72.60
2017-05-12T22:11:31.036Z,72.20
2017-05-12T22:13:58.375Z,72.50
2017-05-12T22:16:25.654Z,72.60
2017-05-12T22:18:52.586Z,72.60
2017-05-12T22:21:19.908Z,72.40
2017-05-12T22:23:46.856Z,72.40
2017-05-12T22:26:14.125Z,72.10
2017-05-12T22:28:41.462Z,72.30
2017-05-12T22:31:08.750Z,72.20
2017-05-12T22:33:36.068Z,72.60
2017-05-12T22:36:02.955Z,72.60
2017-05-12T22:38:29.846Z,72.40
2017-05-12T22:40:57.161Z,72.80
2017-05-12T22:43:24.812Z,72.80
2017-05-12T22:45:51.702Z,72.80
2017-05-12T22:48:19.014Z,72.90
2017-05-12T22:50:45.898Z,72.90
2017-05-12T22:53:13.196Z,72.80
2017-05-12T22:55:40.519Z,73.30
2017-05-12T22:58:07.890Z,73.50
2017-05-12T23:00:35.167Z,73.60
2017-05-12T23:03:02.624Z,73.90
2017-05-12T23:05:29.645Z,73.90
2017-05-12T23:07:57.018Z,74.10
2017-05-12T23:10:24.054Z,74.10
2017-05-12T23:12:51.328Z,73.50
2017-05-12T23:15:18.662Z,73.80
2017-05-12T23:17:45.606Z,73.80
2017-05-12T23:20:12.502Z,73.80
2017-05-12T23:22:40.149Z,72.80
2017-05-12T23:25:07.083Z,72.80
2017-05-12T23:27:34.361Z,73.70
2017-05-12T23:30:02.006Z,73.80
2017-05-12T23:32:29.321Z,74.00
2017-05-12T23:34:56.610Z,74.00
2017-05-12T23:37:23.889Z,74.10
2017-05-12T23:39:50.801Z,74.10
2017-05-12T23:42:18.086Z,74.50
2017-05-12T23:44:45.741Z,74.80
2017-05-12T23:47:13.057Z,74.70
2017-05-12T23:49:40.425Z,74.20
2017-05-12T23:52:07.730Z,74.10
2017-05-12T23:54:35.383Z,74.50
2017-05-12T23:57:03.138Z,74.50
2017-05-12T23:59:30.416Z,74.50
